sensor_id;sensor_type;location;lat;lon;timestamp;temperature;humidity
10968;DHT22;5536;49.602;10.980;2023-10-31T00:00:22;12.40;99.90
10968;DHT22;5536;49.602;10.980;2023-10-31T00:02:49;12.40;99.90
10968;DHT22;5536;49.602;10.980;2023-10-31T00:05:17;12.40;99.90
10968;DHT22;5536;49.602;10.980;2023-10-31T00:07:44;12.50;99.90
10968;DHT22;5536;49.602;10.980;2023-10-31T00:10:11;12.50;99.90
10968;DHT22;5536;49.602;10.980;2023-10-31T00:12:39;12.50;99.90
10968;DHT22;5536;49.602;10.980;2023-10-31T00:15:06;12.50;99.90
10968;DHT22;5536;49.602;10.980;2023-10-31T00:17:33;12.40;99.90
10968;DHT22;5536;49.602;10.980;2023-10-31T00:20:00;12.50;99.90
10968;DHT22;5536;49.602;10.980;2023-10-31T00:22:29;12.50;99.90
10968;DHT22;5536;49.602;10.980;2023-10-31T00:24:56;12.50;99.90
10968;DHT22;5536;49.602;10.980;2023-10-31T00:27:23;12.40;99.90
10968;DHT22;5536;49.602;10.980;2023-10-31T00:29:50;12.50;99.90
10968;DHT22;5536;49.602;10.980;2023-10-31T00:32:17;12.50;99.90
10968;DHT22;5536;49.602;10.980;2023-10-31T00:34:44;12.40;99.90
10968;DHT22;5536;49.602;10.980;2023-10-31T00:37:11;12.50;99.90
10968;DHT22;5536;49.602;10.980;2023-10-31T00:39:40;12.50;99.90
10968;DHT22;5536;49.602;10.980;2023-10-31T00:42:07;12.50;99.90
10968;DHT22;5536;49.602;10.980;2023-10-31T00:44:34;12.50;99.90
10968;DHT22;5536;49.602;10.980;2023-10-31T00:47:01;12.50;99.90
10968;DHT22;5536;49.602;10.980;2023-10-31T00:49:29;12.50;99.90
10968;DHT22;5536;49.602;10.980;2023-10-31T00:51:56;12.60;99.90
10968;DHT22;5536;49.602;10.980;2023-10-31T00:54:23;12.60;99.90
10968;DHT22;5536;49.602;10.980;2023-10-31T00:56:51;12.60;99.90
10968;DHT22;5536;49.602;10.980;2023-10-31T00:59:18;12.60;99.90
10968;DHT22;5536;49.602;10.980;2023-10-31T01:01:45;12.60;99.90
10968;DHT22;5536;49.602;10.980;2023-10-31T01:04:12;12.60;99.90
10968;DHT22;5536;49.602;10.980;2023-10-31T01:06:43;12.60;99.90
10968;DHT22;5536;49.602;10.980;2023-10-31T01:09:10;12.60;99.90
10968;DHT22;5536;49.602;10.980;2023-10-31T01:11:38;12.60;99.90
10968;DHT22;5536;49.602;10.980;2023-10-31T01:14:07;12.50;99.90
10968;DHT22;5536;49.602;10.980;2023-10-31T01:16:34;12.50;99.90
10968;DHT22;5536;49.602;10.980;2023-10-31T01:19:01;12.50;99.90
10968;DHT22;5536;49.602;10.980;2023-10-31T01:21:29;12.50;99.90
10968;DHT22;5536;49.602;10.980;2023-10-31T01:23:56;12.40;99.90
10968;DHT22;5536;49.602;10.980;2023-10-31T01:26:23;12.50;99.90
10968;DHT22;5536;49.602;10.980;2023-10-31T01:28:50;12.50;99.90
10968;DHT22;5536;49.602;10.980;2023-10-31T01:31:18;12.50;99.90
10968;DHT22;5536;49.602;10.980;2023-10-31T01:33:46;12.40;99.90
10968;DHT22;5536;49.602;10.980;2023-10-31T01:36:13;12.40;99.90
10968;DHT22;5536;49.602;10.980;2023-10-31T01:38:40;12.40;99.90
10968;DHT22;5536;49.602;10.980;2023-10-31T01:41:07;12.40;99.90
10968;DHT22;5536;49.602;10.980;2023-10-31T01:43:35;12.30;99.90
10968;DHT22;5536;49.602;10.980;2023-10-31T01:46:03;12.40;99.90
10968;DHT22;5536;49.602;10.980;2023-10-31T01:48:32;12.40;99.90
10968;DHT22;5536;49.602;10.980;2023-10-31T01:51:02;12.40;99.90
10968;DHT22;5536;49.602;10.980;2023-10-31T01:53:31;12.40;99.90
10968;DHT22;5536;49.602;10.980;2023-10-31T01:55:59;12.30;99.90
10968;DHT22;5536;49.602;10.980;2023-10-31T01:58:30;12.30;99.90
10968;DHT22;5536;49.602;10.980;2023-10-31T02:00:59;12.30;99.90
10968;DHT22;5536;49.602;10.980;2023-10-31T02:03:27;12.30;99.90
10968;DHT22;5536;49.602;10.980;2023-10-31T02:05:56;12.30;99.90
10968;DHT22;5536;49.602;10.980;2023-10-31T02:08:24;12.30;99.90
10968;DHT22;5536;49.602;10.980;2023-10-31T02:10:51;12.30;99.90
10968;DHT22;5536;49.602;10.980;2023-10-31T02:13:18;12.30;99.90
10968;DHT22;5536;49.602;10.980;2023-10-31T02:15:46;12.30;99.90
10968;DHT22;5536;49.602;10.980;2023-10-31T02:18:15;12.30;99.90
10968;DHT22;5536;49.602;10.980;2023-10-31T02:20:42;12.30;99.90
10968;DHT22;5536;49.602;10.980;2023-10-31T02:23:11;12.30;99.90
10968;DHT22;5536;49.602;10.980;2023-10-31T02:25:37;12.30;99.90
10968;DHT22;5536;49.602;10.980;2023-10-31T02:28:04;12.30;99.90
10968;DHT22;5536;49.602;10.980;2023-10-31T02:30:35;12.20;99.90
10968;DHT22;5536;49.602;10.980;2023-10-31T02:33:02;12.20;99.90
10968;DHT22;5536;49.602;10.980;2023-10-31T02:35:29;12.20;99.90
10968;DHT22;5536;49.602;10.980;2023-10-31T02:37:56;12.20;99.90
10968;DHT22;5536;49.602;10.980;2023-10-31T02:40:24;12.20;99.90
10968;DHT22;5536;49.602;10.980;2023-10-31T02:42:51;12.20;99.90
10968;DHT22;5536;49.602;10.980;2023-10-31T02:45:18;12.20;99.90
10968;DHT22;5536;49.602;10.980;2023-10-31T02:47:45;12.20;99.90
10968;DHT22;5536;49.602;10.980;2023-10-31T02:50:12;12.20;99.90
10968;DHT22;5536;49.602;10.980;2023-10-31T02:52:39;12.20;99.90
10968;DHT22;5536;49.602;10.980;2023-10-31T02:55:07;12.10;99.90
10968;DHT22;5536;49.602;10.980;2023-10-31T02:57:35;12.10;99.90
10968;DHT22;5536;49.602;10.980;2023-10-31T03:00:03;12.00;99.90
10968;DHT22;5536;49.602;10.980;2023-10-31T03:02:30;12.00;99.90
10968;DHT22;5536;49.602;10.980;2023-10-31T03:04:57;12.00;99.90
10968;DHT22;5536;49.602;10.980;2023-10-31T03:07:24;11.90;99.90
10968;DHT22;5536;49.602;10.980;2023-10-31T03:09:51;11.90;99.90
10968;DHT22;5536;49.602;10.980;2023-10-31T03:12:19;11.90;99.90
10968;DHT22;5536;49.602;10.980;2023-10-31T03:14:48;11.80;99.90
10968;DHT22;5536;49.602;10.980;2023-10-31T03:17:18;11.80;99.90
10968;DHT22;5536;49.602;10.980;2023-10-31T03:19:45;11.80;99.90
10968;DHT22;5536;49.602;10.980;2023-10-31T03:22:12;11.80;99.90
10968;DHT22;5536;49.602;10.980;2023-10-31T03:24:39;11.80;99.90
10968;DHT22;5536;49.602;10.980;2023-10-31T03:27:06;11.80;99.90
10968;DHT22;5536;49.602;10.980;2023-10-31T03:29:33;11.80;99.90
10968;DHT22;5536;49.602;10.980;2023-10-31T03:32:01;11.70;99.90
10968;DHT22;5536;49.602;10.980;2023-10-31T03:34:30;11.70;99.90
10968;DHT22;5536;49.602;10.980;2023-10-31T03:36:57;11.70;99.90
10968;DHT22;5536;49.602;10.980;2023-10-31T03:39:24;11.70;99.90
10968;DHT22;5536;49.602;10.980;2023-10-31T03:41:52;11.70;99.90
10968;DHT22;5536;49.602;10.980;2023-10-31T03:44:19;11.60;99.90
10968;DHT22;5536;49.602;10.980;2023-10-31T03:46:46;11.60;99.90
10968;DHT22;5536;49.602;10.980;2023-10-31T03:49:15;11.60;99.90
10968;DHT22;5536;49.602;10.980;2023-10-31T03:51:42;11.50;99.90
10968;DHT22;5536;49.602;10.980;2023-10-31T03:54:09;11.50;99.90
10968;DHT22;5536;49.602;10.980;2023-10-31T03:56:39;11.50;99.90
10968;DHT22;5536;49.602;10.980;2023-10-31T03:59:06;11.50;99.90
10968;DHT22;5536;49.602;10.980;2023-10-31T04:01:33;11.50;99.90
10968;DHT22;5536;49.602;10.980;2023-10-31T04:04:00;11.40;99.90
10968;DHT22;5536;49.602;10.980;2023-10-31T04:06:29;11.30;99.90
10968;DHT22;5536;49.602;10.980;2023-10-31T04:08:56;11.30;99.90
10968;DHT22;5536;49.602;10.980;2023-10-31T04:11:23;11.30;99.90
10968;DHT22;5536;49.602;10.980;2023-10-31T04:13:50;11.30;99.90
10968;DHT22;5536;49.602;10.980;2023-10-31T04:16:17;11.30;99.90
10968;DHT22;5536;49.602;10.980;2023-10-31T04:18:44;11.30;99.90
10968;DHT22;5536;49.602;10.980;2023-10-31T04:21:11;11.30;99.90
10968;DHT22;5536;49.602;10.980;2023-10-31T04:23:39;11.20;99.90
10968;DHT22;5536;49.602;10.980;2023-10-31T04:26:06;11.20;99.90
10968;DHT22;5536;49.602;10.980;2023-10-31T04:28:33;11.10;99.90
10968;DHT22;5536;49.602;10.980;2023-10-31T04:31:00;11.10;99.90
10968;DHT22;5536;49.602;10.980;2023-10-31T04:33:27;11.10;99.90
10968;DHT22;5536;49.602;10.980;2023-10-31T04:35:54;11.10;99.90
10968;DHT22;5536;49.602;10.980;2023-10-31T04:38:21;11.10;99.90
10968;DHT22;5536;49.602;10.980;2023-10-31T04:40:50;11.10;99.90
10968;DHT22;5536;49.602;10.980;2023-10-31T04:43:17;11.10;99.90
10968;DHT22;5536;49.602;10.980;2023-10-31T04:45:44;11.10;99.90
10968;DHT22;5536;49.602;10.980;2023-10-31T04:48:11;11.00;99.90
10968;DHT22;5536;49.602;10.980;2023-10-31T04:50:38;11.00;99.90
10968;DHT22;5536;49.602;10.980;2023-10-31T04:53:05;11.00;99.90
10968;DHT22;5536;49.602;10.980;2023-10-31T04:55:32;11.00;99.90
10968;DHT22;5536;49.602;10.980;2023-10-31T04:58:00;11.00;99.90
10968;DHT22;5536;49.602;10.980;2023-10-31T05:00:28;11.00;99.90
10968;DHT22;5536;49.602;10.980;2023-10-31T05:02:55;11.00;99.90
10968;DHT22;5536;49.602;10.980;2023-10-31T05:05:23;11.00;99.90
10968;DHT22;5536;49.602;10.980;2023-10-31T05:07:51;11.00;99.90
10968;DHT22;5536;49.602;10.980;2023-10-31T05:10:17;11.10;99.90
10968;DHT22;5536;49.602;10.980;2023-10-31T05:12:44;11.10;99.90
10968;DHT22;5536;49.602;10.980;2023-10-31T05:15:13;11.00;99.90
10968;DHT22;5536;49.602;10.980;2023-10-31T05:17:40;11.00;99.90
10968;DHT22;5536;49.602;10.980;2023-10-31T05:20:08;11.10;99.90
10968;DHT22;5536;49.602;10.980;2023-10-31T05:22:36;11.10;99.90
10968;DHT22;5536;49.602;10.980;2023-10-31T05:25:04;11.10;99.90
10968;DHT22;5536;49.602;10.980;2023-10-31T05:27:31;11.10;99.90
10968;DHT22;5536;49.602;10.980;2023-10-31T05:29:58;11.00;99.90
10968;DHT22;5536;49.602;10.980;2023-10-31T05:32:26;11.00;99.90
10968;DHT22;5536;49.602;10.980;2023-10-31T05:34:53;11.00;99.90
10968;DHT22;5536;49.602;10.980;2023-10-31T05:37:20;11.00;99.90
10968;DHT22;5536;49.602;10.980;2023-10-31T05:39:48;11.00;99.90
10968;DHT22;5536;49.602;10.980;2023-10-31T05:42:15;11.00;99.90
10968;DHT22;5536;49.602;10.980;2023-10-31T05:44:42;10.90;99.90
10968;DHT22;5536;49.602;10.980;2023-10-31T05:47:10;10.90;99.90
10968;DHT22;5536;49.602;10.980;2023-10-31T05:49:38;10.90;99.90
10968;DHT22;5536;49.602;10.980;2023-10-31T05:52:05;10.90;99.90
10968;DHT22;5536;49.602;10.980;2023-10-31T05:54:32;11.00;99.90
10968;DHT22;5536;49.602;10.980;2023-10-31T05:56:59;11.00;99.90
10968;DHT22;5536;49.602;10.980;2023-10-31T05:59:26;11.00;99.90
10968;DHT22;5536;49.602;10.980;2023-10-31T06:01:53;11.00;99.90
10968;DHT22;5536;49.602;10.980;2023-10-31T06:04:20;11.00;99.90
10968;DHT22;5536;49.602;10.980;2023-10-31T06:06:49;10.90;99.90
10968;DHT22;5536;49.602;10.980;2023-10-31T06:09:16;11.00;99.90
10968;DHT22;5536;49.602;10.980;2023-10-31T06:11:43;11.00;99.90
10968;DHT22;5536;49.602;10.980;2023-10-31T06:14:10;11.00;99.90
10968;DHT22;5536;49.602;10.980;2023-10-31T06:16:40;11.00;99.90
10968;DHT22;5536;49.602;10.980;2023-10-31T06:19:07;10.90;99.90
10968;DHT22;5536;49.602;10.980;2023-10-31T06:21:34;11.00;99.90
10968;DHT22;5536;49.602;10.980;2023-10-31T06:24:03;11.10;99.90
10968;DHT22;5536;49.602;10.980;2023-10-31T06:26:30;11.10;99.90
10968;DHT22;5536;49.602;10.980;2023-10-31T06:28:57;11.00;99.90
10968;DHT22;5536;49.602;10.980;2023-10-31T06:31:24;11.00;99.90
10968;DHT22;5536;49.602;10.980;2023-10-31T06:33:51;11.00;99.90
10968;DHT22;5536;49.602;10.980;2023-10-31T06:36:18;11.00;99.90
10968;DHT22;5536;49.602;10.980;2023-10-31T06:38:45;11.10;99.90
10968;DHT22;5536;49.602;10.980;2023-10-31T06:41:14;11.10;99.90
10968;DHT22;5536;49.602;10.980;2023-10-31T06:43:41;11.10;99.90
10968;DHT22;5536;49.602;10.980;2023-10-31T06:46:08;11.10;99.90
10968;DHT22;5536;49.602;10.980;2023-10-31T06:48:35;11.10;99.90
10968;DHT22;5536;49.602;10.980;2023-10-31T06:51:02;11.10;99.90
10968;DHT22;5536;49.602;10.980;2023-10-31T06:53:29;11.20;99.90
10968;DHT22;5536;49.602;10.980;2023-10-31T06:55:56;11.20;99.90
10968;DHT22;5536;49.602;10.980;2023-10-31T06:58:25;11.20;99.90
10968;DHT22;5536;49.602;10.980;2023-10-31T07:00:52;11.30;99.90
10968;DHT22;5536;49.602;10.980;2023-10-31T07:03:20;11.30;99.90
10968;DHT22;5536;49.602;10.980;2023-10-31T07:05:47;11.30;99.90
10968;DHT22;5536;49.602;10.980;2023-10-31T07:08:14;11.30;99.90
10968;DHT22;5536;49.602;10.980;2023-10-31T07:10:41;11.40;99.90
10968;DHT22;5536;49.602;10.980;2023-10-31T07:13:08;11.40;99.90
10968;DHT22;5536;49.602;10.980;2023-10-31T07:15:36;11.40;99.90
10968;DHT22;5536;49.602;10.980;2023-10-31T07:18:05;11.40;99.90
10968;DHT22;5536;49.602;10.980;2023-10-31T07:20:33;11.40;99.90
10968;DHT22;5536;49.602;10.980;2023-10-31T07:23:00;11.30;99.90
10968;DHT22;5536;49.602;10.980;2023-10-31T07:25:27;11.30;99.90
10968;DHT22;5536;49.602;10.980;2023-10-31T07:27:56;11.30;99.90
10968;DHT22;5536;49.602;10.980;2023-10-31T07:30:23;11.30;99.90
10968;DHT22;5536;49.602;10.980;2023-10-31T07:32:52;11.30;99.90
10968;DHT22;5536;49.602;10.980;2023-10-31T07:35:19;11.30;99.90
10968;DHT22;5536;49.602;10.980;2023-10-31T07:37:46;11.30;99.90
10968;DHT22;5536;49.602;10.980;2023-10-31T07:40:13;11.30;99.90
10968;DHT22;5536;49.602;10.980;2023-10-31T07:42:40;11.40;99.90
10968;DHT22;5536;49.602;10.980;2023-10-31T07:45:08;11.40;99.90
10968;DHT22;5536;49.602;10.980;2023-10-31T07:47:36;11.40;99.90
10968;DHT22;5536;49.602;10.980;2023-10-31T07:50:08;11.50;99.90
10968;DHT22;5536;49.602;10.980;2023-10-31T07:52:35;11.50;99.90
10968;DHT22;5536;49.602;10.980;2023-10-31T07:55:02;11.50;99.90
10968;DHT22;5536;49.602;10.980;2023-10-31T07:57:30;11.60;99.90
10968;DHT22;5536;49.602;10.980;2023-10-31T07:59:57;11.60;99.90
10968;DHT22;5536;49.602;10.980;2023-10-31T08:02:24;11.60;99.90
10968;DHT22;5536;49.602;10.980;2023-10-31T08:04:51;11.60;99.90
10968;DHT22;5536;49.602;10.980;2023-10-31T08:07:19;11.60;99.90
10968;DHT22;5536;49.602;10.980;2023-10-31T08:09:46;11.60;99.90
10968;DHT22;5536;49.602;10.980;2023-10-31T08:12:13;11.60;99.90
10968;DHT22;5536;49.602;10.980;2023-10-31T08:14:40;11.60;99.90
10968;DHT22;5536;49.602;10.980;2023-10-31T08:17:07;11.60;99.90
10968;DHT22;5536;49.602;10.980;2023-10-31T08:19:34;11.50;99.90
10968;DHT22;5536;49.602;10.980;2023-10-31T08:22:04;11.60;99.90
10968;DHT22;5536;49.602;10.980;2023-10-31T08:24:32;11.60;99.90
10968;DHT22;5536;49.602;10.980;2023-10-31T08:27:01;11.60;99.90
10968;DHT22;5536;49.602;10.980;2023-10-31T08:29:28;11.60;99.90
10968;DHT22;5536;49.602;10.980;2023-10-31T08:31:55;11.60;99.90
10968;DHT22;5536;49.602;10.980;2023-10-31T08:34:22;11.70;99.90
10968;DHT22;5536;49.602;10.980;2023-10-31T08:36:49;11.60;99.90
10968;DHT22;5536;49.602;10.980;2023-10-31T08:39:18;11.70;99.90
10968;DHT22;5536;49.602;10.980;2023-10-31T08:41:54;11.70;99.90
10968;DHT22;5536;49.602;10.980;2023-10-31T08:44:21;11.70;99.90
10968;DHT22;5536;49.602;10.980;2023-10-31T08:46:48;11.60;99.90
10968;DHT22;5536;49.602;10.980;2023-10-31T08:49:16;11.60;99.90
10968;DHT22;5536;49.602;10.980;2023-10-31T08:51:44;11.60;99.90
10968;DHT22;5536;49.602;10.980;2023-10-31T08:54:11;11.60;99.90
10968;DHT22;5536;49.602;10.980;2023-10-31T08:56:39;11.50;99.90
10968;DHT22;5536;49.602;10.980;2023-10-31T08:59:08;11.60;99.90
10968;DHT22;5536;49.602;10.980;2023-10-31T09:01:35;11.50;99.90
10968;DHT22;5536;49.602;10.980;2023-10-31T09:04:02;11.50;99.90
10968;DHT22;5536;49.602;10.980;2023-10-31T09:06:29;11.60;99.90
10968;DHT22;5536;49.602;10.980;2023-10-31T09:08:56;11.60;99.90
10968;DHT22;5536;49.602;10.980;2023-10-31T09:11:23;11.70;99.90
10968;DHT22;5536;49.602;10.980;2023-10-31T09:13:50;11.70;99.90
10968;DHT22;5536;49.602;10.980;2023-10-31T09:16:19;11.60;99.90
10968;DHT22;5536;49.602;10.980;2023-10-31T09:18:46;11.60;99.90
10968;DHT22;5536;49.602;10.980;2023-10-31T09:21:13;11.70;99.90
10968;DHT22;5536;49.602;10.980;2023-10-31T09:23:40;11.70;99.90
10968;DHT22;5536;49.602;10.980;2023-10-31T09:26:07;11.70;99.90
10968;DHT22;5536;49.602;10.980;2023-10-31T09:28:35;11.70;99.90
10968;DHT22;5536;49.602;10.980;2023-10-31T09:31:03;11.80;99.90
10968;DHT22;5536;49.602;10.980;2023-10-31T09:33:31;11.80;99.90
10968;DHT22;5536;49.602;10.980;2023-10-31T09:35:58;11.80;99.90
10968;DHT22;5536;49.602;10.980;2023-10-31T09:38:25;11.90;99.90
10968;DHT22;5536;49.602;10.980;2023-10-31T09:40:53;12.00;99.90
10968;DHT22;5536;49.602;10.980;2023-10-31T09:43:20;12.00;99.90
10968;DHT22;5536;49.602;10.980;2023-10-31T09:45:47;12.00;99.90
10968;DHT22;5536;49.602;10.980;2023-10-31T09:48:15;12.00;99.90
10968;DHT22;5536;49.602;10.980;2023-10-31T09:50:45;11.80;99.90
10968;DHT22;5536;49.602;10.980;2023-10-31T09:53:14;11.80;99.90
10968;DHT22;5536;49.602;10.980;2023-10-31T09:55:42;11.70;99.90
10968;DHT22;5536;49.602;10.980;2023-10-31T09:58:11;11.70;99.90
10968;DHT22;5536;49.602;10.980;2023-10-31T10:00:38;11.70;99.90
10968;DHT22;5536;49.602;10.980;2023-10-31T10:03:07;11.70;99.90
10968;DHT22;5536;49.602;10.980;2023-10-31T10:05:39;11.80;99.90
10968;DHT22;5536;49.602;10.980;2023-10-31T10:08:09;11.90;99.90
10968;DHT22;5536;49.602;10.980;2023-10-31T10:10:36;12.00;99.90
10968;DHT22;5536;49.602;10.980;2023-10-31T10:13:06;12.10;99.90
10968;DHT22;5536;49.602;10.980;2023-10-31T10:15:43;12.20;99.90
10968;DHT22;5536;49.602;10.980;2023-10-31T10:18:10;12.30;99.90
10968;DHT22;5536;49.602;10.980;2023-10-31T10:20:54;12.50;99.90
10968;DHT22;5536;49.602;10.980;2023-10-31T10:23:23;12.60;99.90
10968;DHT22;5536;49.602;10.980;2023-10-31T10:25:52;12.60;99.90
10968;DHT22;5536;49.602;10.980;2023-10-31T10:28:19;12.50;99.90
10968;DHT22;5536;49.602;10.980;2023-10-31T10:30:46;12.60;99.90
10968;DHT22;5536;49.602;10.980;2023-10-31T10:33:13;12.60;99.90
10968;DHT22;5536;49.602;10.980;2023-10-31T10:35:41;12.60;99.90
10968;DHT22;5536;49.602;10.980;2023-10-31T10:38:11;12.60;99.90
10968;DHT22;5536;49.602;10.980;2023-10-31T10:40:42;12.60;99.90
10968;DHT22;5536;49.602;10.980;2023-10-31T10:43:13;12.70;99.90
10968;DHT22;5536;49.602;10.980;2023-10-31T10:45:43;12.80;99.90
10968;DHT22;5536;49.602;10.980;2023-10-31T10:48:12;12.80;99.90
10968;DHT22;5536;49.602;10.980;2023-10-31T10:50:42;12.70;99.90
10968;DHT22;5536;49.602;10.980;2023-10-31T10:53:21;12.70;99.90
10968;DHT22;5536;49.602;10.980;2023-10-31T10:55:59;12.80;99.90
10968;DHT22;5536;49.602;10.980;2023-10-31T10:58:31;12.70;99.90
10968;DHT22;5536;49.602;10.980;2023-10-31T11:01:00;12.70;99.90
10968;DHT22;5536;49.602;10.980;2023-10-31T11:03:29;12.70;99.90
10968;DHT22;5536;49.602;10.980;2023-10-31T11:05:57;12.60;99.90
10968;DHT22;5536;49.602;10.980;2023-10-31T11:08:24;12.60;99.90
10968;DHT22;5536;49.602;10.980;2023-10-31T11:10:53;12.50;99.90
10968;DHT22;5536;49.602;10.980;2023-10-31T11:13:26;12.50;99.90
10968;DHT22;5536;49.602;10.980;2023-10-31T11:15:57;12.60;99.90
10968;DHT22;5536;49.602;10.980;2023-10-31T11:18:26;12.60;99.90
10968;DHT22;5536;49.602;10.980;2023-10-31T11:20:54;12.60;99.90
10968;DHT22;5536;49.602;10.980;2023-10-31T11:23:20;12.60;99.90
10968;DHT22;5536;49.602;10.980;2023-10-31T11:25:50;12.50;99.90
10968;DHT22;5536;49.602;10.980;2023-10-31T11:28:20;12.60;99.90
10968;DHT22;5536;49.602;10.980;2023-10-31T11:30:48;12.60;99.90
10968;DHT22;5536;49.602;10.980;2023-10-31T11:33:19;12.60;99.90
10968;DHT22;5536;49.602;10.980;2023-10-31T11:35:50;12.70;99.90
10968;DHT22;5536;49.602;10.980;2023-10-31T11:38:30;12.80;99.90
10968;DHT22;5536;49.602;10.980;2023-10-31T11:40:59;12.80;99.90
10968;DHT22;5536;49.602;10.980;2023-10-31T11:43:51;12.90;99.90
10968;DHT22;5536;49.602;10.980;2023-10-31T11:46:19;12.80;99.90
10968;DHT22;5536;49.602;10.980;2023-10-31T11:48:49;12.90;99.90
10968;DHT22;5536;49.602;10.980;2023-10-31T11:51:17;13.10;99.90
10968;DHT22;5536;49.602;10.980;2023-10-31T11:53:44;13.20;99.90
10968;DHT22;5536;49.602;10.980;2023-10-31T11:56:12;13.20;99.90
10968;DHT22;5536;49.602;10.980;2023-10-31T11:58:43;13.00;99.90
10968;DHT22;5536;49.602;10.980;2023-10-31T12:01:10;13.00;99.90
10968;DHT22;5536;49.602;10.980;2023-10-31T12:03:38;12.90;99.90
10968;DHT22;5536;49.602;10.980;2023-10-31T12:06:06;12.90;99.90
10968;DHT22;5536;49.602;10.980;2023-10-31T12:08:34;12.90;99.90
10968;DHT22;5536;49.602;10.980;2023-10-31T12:11:08;12.80;99.90
10968;DHT22;5536;49.602;10.980;2023-10-31T12:13:37;12.70;99.90
10968;DHT22;5536;49.602;10.980;2023-10-31T12:16:08;12.80;99.90
10968;DHT22;5536;49.602;10.980;2023-10-31T12:18:35;12.60;99.90
10968;DHT22;5536;49.602;10.980;2023-10-31T12:21:04;12.60;99.90
10968;DHT22;5536;49.602;10.980;2023-10-31T12:23:32;12.60;99.90
10968;DHT22;5536;49.602;10.980;2023-10-31T12:25:59;12.60;99.90
10968;DHT22;5536;49.602;10.980;2023-10-31T12:28:26;12.70;99.90
10968;DHT22;5536;49.602;10.980;2023-10-31T12:30:54;12.80;99.90
10968;DHT22;5536;49.602;10.980;2023-10-31T12:33:26;12.80;99.90
10968;DHT22;5536;49.602;10.980;2023-10-31T12:35:57;13.00;99.90
10968;DHT22;5536;49.602;10.980;2023-10-31T12:38:25;13.10;99.90
10968;DHT22;5536;49.602;10.980;2023-10-31T12:40:53;13.00;99.90
10968;DHT22;5536;49.602;10.980;2023-10-31T12:43:21;12.90;99.90
10968;DHT22;5536;49.602;10.980;2023-10-31T12:45:48;12.80;99.90
10968;DHT22;5536;49.602;10.980;2023-10-31T12:48:15;12.90;99.90
10968;DHT22;5536;49.602;10.980;2023-10-31T12:50:43;12.90;99.90
10968;DHT22;5536;49.602;10.980;2023-10-31T12:53:10;13.00;99.90
10968;DHT22;5536;49.602;10.980;2023-10-31T12:55:38;13.00;99.90
10968;DHT22;5536;49.602;10.980;2023-10-31T12:58:06;13.00;99.90
10968;DHT22;5536;49.602;10.980;2023-10-31T13:00:36;12.90;99.90
10968;DHT22;5536;49.602;10.980;2023-10-31T13:03:06;12.90;99.90
10968;DHT22;5536;49.602;10.980;2023-10-31T13:05:34;12.80;99.90
10968;DHT22;5536;49.602;10.980;2023-10-31T13:08:03;12.70;99.90
10968;DHT22;5536;49.602;10.980;2023-10-31T13:10:32;12.80;99.90
10968;DHT22;5536;49.602;10.980;2023-10-31T13:13:00;12.80;99.90
10968;DHT22;5536;49.602;10.980;2023-10-31T13:15:27;12.80;99.90
10968;DHT22;5536;49.602;10.980;2023-10-31T13:17:54;12.80;99.90
10968;DHT22;5536;49.602;10.980;2023-10-31T13:20:21;12.80;99.90
10968;DHT22;5536;49.602;10.980;2023-10-31T13:22:49;12.90;99.90
10968;DHT22;5536;49.602;10.980;2023-10-31T13:25:17;13.00;99.90
10968;DHT22;5536;49.602;10.980;2023-10-31T13:27:45;12.90;99.90
10968;DHT22;5536;49.602;10.980;2023-10-31T13:30:17;13.00;99.90
10968;DHT22;5536;49.602;10.980;2023-10-31T13:32:44;13.00;99.90
10968;DHT22;5536;49.602;10.980;2023-10-31T13:35:12;13.00;99.90
10968;DHT22;5536;49.602;10.980;2023-10-31T13:37:40;13.00;99.90
10968;DHT22;5536;49.602;10.980;2023-10-31T13:40:08;13.00;99.90
10968;DHT22;5536;49.602;10.980;2023-10-31T13:42:36;13.00;99.90
10968;DHT22;5536;49.602;10.980;2023-10-31T13:45:04;13.10;99.90
10968;DHT22;5536;49.602;10.980;2023-10-31T13:47:31;13.10;99.90
10968;DHT22;5536;49.602;10.980;2023-10-31T13:49:58;13.20;99.90
10968;DHT22;5536;49.602;10.980;2023-10-31T13:52:25;13.20;99.90
10968;DHT22;5536;49.602;10.980;2023-10-31T13:54:52;13.20;99.90
10968;DHT22;5536;49.602;10.980;2023-10-31T13:57:19;13.20;99.90
10968;DHT22;5536;49.602;10.980;2023-10-31T13:59:49;13.20;99.90
10968;DHT22;5536;49.602;10.980;2023-10-31T14:02:17;13.10;99.90
10968;DHT22;5536;49.602;10.980;2023-10-31T14:04:45;13.00;99.90
10968;DHT22;5536;49.602;10.980;2023-10-31T14:07:18;13.00;99.90
10968;DHT22;5536;49.602;10.980;2023-10-31T14:09:50;13.00;99.90
10968;DHT22;5536;49.602;10.980;2023-10-31T14:12:17;13.00;99.90
10968;DHT22;5536;49.602;10.980;2023-10-31T14:14:44;12.90;99.90
10968;DHT22;5536;49.602;10.980;2023-10-31T14:17:14;12.90;99.90
10968;DHT22;5536;49.602;10.980;2023-10-31T14:19:42;12.80;99.90
10968;DHT22;5536;49.602;10.980;2023-10-31T14:22:12;12.80;99.90
10968;DHT22;5536;49.602;10.980;2023-10-31T14:24:39;12.80;99.90
10968;DHT22;5536;49.602;10.980;2023-10-31T14:27:06;12.80;99.90
10968;DHT22;5536;49.602;10.980;2023-10-31T14:29:33;12.80;99.90
10968;DHT22;5536;49.602;10.980;2023-10-31T14:32:05;12.80;99.90
10968;DHT22;5536;49.602;10.980;2023-10-31T14:34:34;12.80;99.90
10968;DHT22;5536;49.602;10.980;2023-10-31T14:37:01;12.80;99.90
10968;DHT22;5536;49.602;10.980;2023-10-31T14:39:28;12.80;99.90
10968;DHT22;5536;49.602;10.980;2023-10-31T14:41:55;12.70;99.90
10968;DHT22;5536;49.602;10.980;2023-10-31T14:44:22;12.70;99.90
10968;DHT22;5536;49.602;10.980;2023-10-31T14:46:49;12.60;99.90
10968;DHT22;5536;49.602;10.980;2023-10-31T14:49:16;12.60;99.90
10968;DHT22;5536;49.602;10.980;2023-10-31T14:51:47;12.70;99.90
10968;DHT22;5536;49.602;10.980;2023-10-31T14:54:15;12.70;99.90
10968;DHT22;5536;49.602;10.980;2023-10-31T14:56:42;12.60;99.90
10968;DHT22;5536;49.602;10.980;2023-10-31T14:59:09;12.60;99.90
10968;DHT22;5536;49.602;10.980;2023-10-31T15:01:36;12.60;99.90
10968;DHT22;5536;49.602;10.980;2023-10-31T15:04:03;12.50;99.90
10968;DHT22;5536;49.602;10.980;2023-10-31T15:06:30;12.50;99.90
10968;DHT22;5536;49.602;10.980;2023-10-31T15:08:58;12.50;99.90
10968;DHT22;5536;49.602;10.980;2023-10-31T15:11:25;12.50;99.90
10968;DHT22;5536;49.602;10.980;2023-10-31T15:13:52;12.60;99.90
10968;DHT22;5536;49.602;10.980;2023-10-31T15:16:19;12.60;99.90
10968;DHT22;5536;49.602;10.980;2023-10-31T15:18:46;12.60;99.90
10968;DHT22;5536;49.602;10.980;2023-10-31T15:21:13;12.50;99.90
10968;DHT22;5536;49.602;10.980;2023-10-31T15:23:40;12.50;99.90
10968;DHT22;5536;49.602;10.980;2023-10-31T15:26:08;12.60;99.90
10968;DHT22;5536;49.602;10.980;2023-10-31T15:28:38;12.60;99.90
10968;DHT22;5536;49.602;10.980;2023-10-31T15:31:06;12.60;99.90
10968;DHT22;5536;49.602;10.980;2023-10-31T15:33:33;12.60;99.90